首页
METAR-TAF:

METAR-TAF

机场 :

Tyndall Air Force Base

Panama City, 佛罗里达州, 美国

纬度: 30-04N, 经度: 085-35W, 海拔: 5米

当前天气观测

该预报发布于19分钟前的21:36 UTC
风速14节,风向
温度 27°C
湿度 74%
气压 1016 hPa
能見度: 16.1公里
多云层高于1300英尺

METAR: KPAM 282136Z AUTO 17014KT 10SM BKN013 27/22 A3000 RMK AO2 CIG 013V020 BKN V SCT SLP162 $

时间: 16:55 (21:55 UTC)

预报

该预报发布于26小时和55分钟前的19:00 UTC
预报有效从27日的 19点(UTC)到 29日的 01点(UTC)
风速8节,风向西南
能见度10公里或以上
多云层高于1700英尺
多云层高于2500英尺
成为
从 28日的 02点(UTC)到 28日的 03点(UTC)
风速5节,风向
能见度10公里或以上
少量云层高于1500英尺
散云层高于3000英尺
成为
从 28日的 08点(UTC)到 28日的 09点(UTC)
风速6节,风向
能見度: 4800
少量云层高于400英尺
轻雾
成为
从 28日的 12点(UTC)到 28日的 13点(UTC)
风速9节,风向
能見度: 3011
散云层高于2000英尺

TAF: KPAM 271900Z 2719/2901 22008KT 9999 BKN017 BKN025 QNH2997INS BECMG 2802/2803 19005KT 9999 FEW015 SCT030 QNH3002INS BECMG 2808/2809 18006KT 4800 BR FEW004 QNH2998INS BECMG 2812/2813 18009KT 9999 NSW SCT020 QNH3000INS TX28/2720Z TN21/2811Z LAST NO AMDS AFT 2722 NEXT 3011

超过4000个机场的气象观测和天气预报(METAR&TAF报告)。

可查询的气象台以黄色和红色小点在地图上表示。

将鼠标移到小点上方,可查看气象台名称。

然后点击查看天气观测和预报。

如需切换地图:点击带黑十字的绿色按钮放大地图;点击带横线的绿色按钮缩小地图;或者点击绿色箭头查看邻近地区的地图。


METAR-TAF: